sensor_id;sensor_type;location;lat;lon;timestamp;P1;durP1;ratioP1;P2;durP2;ratioP2
23588;SDS011;11972;48.078;11.876;2023-04-25T00:02:10;1.95;;;0.98;;
23588;SDS011;11972;48.078;11.876;2023-04-25T00:06:10;2.17;;;1.30;;
23588;SDS011;11972;48.078;11.876;2023-04-25T00:10:11;2.28;;;0.98;;
23588;SDS011;11972;48.078;11.876;2023-04-25T00:14:11;0.80;;;0.80;;
23588;SDS011;11972;48.078;11.876;2023-04-25T00:18:12;2.67;;;1.10;;
23588;SDS011;11972;48.078;11.876;2023-04-25T00:22:12;1.38;;;1.17;;
23588;SDS011;11972;48.078;11.876;2023-04-25T00:26:13;1.08;;;0.98;;
23588;SDS011;11972;48.078;11.876;2023-04-25T00:30:13;1.80;;;0.90;;
23588;SDS011;11972;48.078;11.876;2023-04-25T00:34:14;1.55;;;0.95;;
23588;SDS011;11972;48.078;11.876;2023-04-25T00:38:14;2.80;;;1.08;;
23588;SDS011;11972;48.078;11.876;2023-04-25T00:42:15;2.42;;;1.25;;
23588;SDS011;11972;48.078;11.876;2023-04-25T00:46:15;2.15;;;1.15;;
23588;SDS011;11972;48.078;11.876;2023-04-25T00:50:16;1.30;;;1.20;;
23588;SDS011;11972;48.078;11.876;2023-04-25T00:54:16;2.00;;;1.30;;
23588;SDS011;11972;48.078;11.876;2023-04-25T00:58:17;2.05;;;1.40;;
23588;SDS011;11972;48.078;11.876;2023-04-25T01:02:18;1.15;;;1.05;;
23588;SDS011;11972;48.078;11.876;2023-04-25T01:06:20;1.75;;;1.10;;
23588;SDS011;11972;48.078;11.876;2023-04-25T01:10:22;2.17;;;1.10;;
23588;SDS011;11972;48.078;11.876;2023-04-25T01:14:23;1.80;;;1.13;;
23588;SDS011;11972;48.078;11.876;2023-04-25T01:18:23;1.25;;;1.00;;
23588;SDS011;11972;48.078;11.876;2023-04-25T01:22:24;1.30;;;1.17;;
23588;SDS011;11972;48.078;11.876;2023-04-25T01:26:24;2.58;;;1.17;;
23588;SDS011;11972;48.078;11.876;2023-04-25T01:30:28;1.35;;;1.10;;
23588;SDS011;11972;48.078;11.876;2023-04-25T01:34:29;1.33;;;1.23;;
23588;SDS011;11972;48.078;11.876;2023-04-25T01:38:29;2.05;;;1.15;;
23588;SDS011;11972;48.078;11.876;2023-04-25T01:42:29;1.30;;;1.20;;
23588;SDS011;11972;48.078;11.876;2023-04-25T01:46:30;1.42;;;1.30;;
23588;SDS011;11972;48.078;11.876;2023-04-25T01:50:31;2.42;;;1.30;;
23588;SDS011;11972;48.078;11.876;2023-04-25T01:54:31;1.33;;;1.10;;
23588;SDS011;11972;48.078;11.876;2023-04-25T01:58:31;1.83;;;1.27;;
23588;SDS011;11972;48.078;11.876;2023-04-25T02:02:32;2.05;;;1.15;;
23588;SDS011;11972;48.078;11.876;2023-04-25T02:06:32;4.13;;;1.40;;
23588;SDS011;11972;48.078;11.876;2023-04-25T02:10:33;3.05;;;1.00;;
23588;SDS011;11972;48.078;11.876;2023-04-25T02:14:34;1.92;;;0.93;;
23588;SDS011;11972;48.078;11.876;2023-04-25T02:18:34;1.48;;;1.27;;
23588;SDS011;11972;48.078;11.876;2023-04-25T02:22:37;1.65;;;1.10;;
23588;SDS011;11972;48.078;11.876;2023-04-25T02:26:37;1.92;;;1.00;;
23588;SDS011;11972;48.078;11.876;2023-04-25T02:30:37;2.42;;;1.20;;
23588;SDS011;11972;48.078;11.876;2023-04-25T02:34:37;3.80;;;1.33;;
23588;SDS011;11972;48.078;11.876;2023-04-25T02:38:38;1.63;;;1.40;;
23588;SDS011;11972;48.078;11.876;2023-04-25T02:42:38;1.55;;;1.20;;
23588;SDS011;11972;48.078;11.876;2023-04-25T02:46:39;1.58;;;1.48;;
23588;SDS011;11972;48.078;11.876;2023-04-25T02:50:39;2.15;;;1.42;;
23588;SDS011;11972;48.078;11.876;2023-04-25T02:54:39;1.90;;;1.52;;
23588;SDS011;11972;48.078;11.876;2023-04-25T02:58:40;1.80;;;1.45;;
23588;SDS011;11972;48.078;11.876;2023-04-25T03:02:41;1.25;;;1.13;;
23588;SDS011;11972;48.078;11.876;2023-04-25T03:06:41;1.67;;;1.30;;
23588;SDS011;11972;48.078;11.876;2023-04-25T03:10:41;1.55;;;1.30;;
23588;SDS011;11972;48.078;11.876;2023-04-25T03:14:42;1.20;;;1.10;;
23588;SDS011;11972;48.078;11.876;2023-04-25T03:18:42;1.77;;;1.30;;
23588;SDS011;11972;48.078;11.876;2023-04-25T03:22:42;2.42;;;1.50;;
23588;SDS011;11972;48.078;11.876;2023-04-25T03:26:43;2.30;;;1.15;;
23588;SDS011;11972;48.078;11.876;2023-04-25T03:30:43;1.55;;;1.20;;
23588;SDS011;11972;48.078;11.876;2023-04-25T03:34:43;3.25;;;1.10;;
23588;SDS011;11972;48.078;11.876;2023-04-25T03:38:44;1.85;;;1.20;;
23588;SDS011;11972;48.078;11.876;2023-04-25T03:42:44;1.50;;;1.20;;
23588;SDS011;11972;48.078;11.876;2023-04-25T03:46:44;2.00;;;1.40;;
23588;SDS011;11972;48.078;11.876;2023-04-25T03:50:45;1.27;;;0.90;;
23588;SDS011;11972;48.078;11.876;2023-04-25T03:54:45;1.88;;;1.00;;
23588;SDS011;11972;48.078;11.876;2023-04-25T03:58:45;2.60;;;1.35;;
23588;SDS011;11972;48.078;11.876;2023-04-25T04:02:46;4.18;;;1.27;;
23588;SDS011;11972;48.078;11.876;2023-04-25T04:06:46;2.75;;;1.20;;
23588;SDS011;11972;48.078;11.876;2023-04-25T04:10:47;3.65;;;1.42;;
23588;SDS011;11972;48.078;11.876;2023-04-25T04:14:47;3.28;;;1.50;;
23588;SDS011;11972;48.078;11.876;2023-04-25T04:18:47;3.55;;;1.75;;
23588;SDS011;11972;48.078;11.876;2023-04-25T04:22:47;6.70;;;1.60;;
23588;SDS011;11972;48.078;11.876;2023-04-25T04:26:49;1.73;;;1.42;;
23588;SDS011;11972;48.078;11.876;2023-04-25T04:30:50;3.05;;;1.50;;
23588;SDS011;11972;48.078;11.876;2023-04-25T04:34:52;2.05;;;1.20;;
23588;SDS011;11972;48.078;11.876;2023-04-25T04:38:54;1.70;;;1.20;;
23588;SDS011;11972;48.078;11.876;2023-04-25T04:42:56;1.88;;;1.33;;
23588;SDS011;11972;48.078;11.876;2023-04-25T04:46:57;2.25;;;1.20;;
23588;SDS011;11972;48.078;11.876;2023-04-25T04:50:57;2.55;;;1.40;;
23588;SDS011;11972;48.078;11.876;2023-04-25T04:54:58;1.67;;;1.10;;
23588;SDS011;11972;48.078;11.876;2023-04-25T04:58:58;3.03;;;1.30;;
23588;SDS011;11972;48.078;11.876;2023-04-25T05:02:59;2.35;;;1.05;;
23588;SDS011;11972;48.078;11.876;2023-04-25T05:07:00;2.15;;;0.98;;
23588;SDS011;11972;48.078;11.876;2023-04-25T05:11:00;1.55;;;1.15;;
23588;SDS011;11972;48.078;11.876;2023-04-25T05:15:01;2.13;;;1.10;;
23588;SDS011;11972;48.078;11.876;2023-04-25T05:19:01;1.63;;;1.50;;
23588;SDS011;11972;48.078;11.876;2023-04-25T05:23:01;2.53;;;1.30;;
23588;SDS011;11972;48.078;11.876;2023-04-25T05:27:02;2.97;;;1.42;;
23588;SDS011;11972;48.078;11.876;2023-04-25T05:31:02;1.63;;;1.27;;
23588;SDS011;11972;48.078;11.876;2023-04-25T05:35:03;2.22;;;1.27;;
23588;SDS011;11972;48.078;11.876;2023-04-25T05:39:05;3.78;;;1.27;;
23588;SDS011;11972;48.078;11.876;2023-04-25T05:43:06;1.40;;;1.08;;
23588;SDS011;11972;48.078;11.876;2023-04-25T05:47:07;1.50;;;1.30;;
23588;SDS011;11972;48.078;11.876;2023-04-25T05:51:07;2.08;;;1.20;;
23588;SDS011;11972;48.078;11.876;2023-04-25T05:55:08;1.60;;;1.08;;
23588;SDS011;11972;48.078;11.876;2023-04-25T05:59:08;1.85;;;1.40;;
23588;SDS011;11972;48.078;11.876;2023-04-25T06:03:09;2.42;;;1.40;;
23588;SDS011;11972;48.078;11.876;2023-04-25T06:07:11;2.03;;;1.20;;
23588;SDS011;11972;48.078;11.876;2023-04-25T06:11:11;3.95;;;1.40;;
23588;SDS011;11972;48.078;11.876;2023-04-25T06:15:11;2.17;;;1.10;;
23588;SDS011;11972;48.078;11.876;2023-04-25T06:19:12;1.77;;;1.05;;
23588;SDS011;11972;48.078;11.876;2023-04-25T06:23:12;2.20;;;1.20;;
23588;SDS011;11972;48.078;11.876;2023-04-25T06:27:13;2.00;;;1.00;;
23588;SDS011;11972;48.078;11.876;2023-04-25T06:31:13;2.97;;;1.20;;
23588;SDS011;11972;48.078;11.876;2023-04-25T06:35:13;1.50;;;0.90;;
23588;SDS011;11972;48.078;11.876;2023-04-25T06:39:13;2.60;;;1.33;;
23588;SDS011;11972;48.078;11.876;2023-04-25T06:43:14;4.70;;;1.48;;
23588;SDS011;11972;48.078;11.876;2023-04-25T06:47:14;1.88;;;1.17;;
23588;SDS011;11972;48.078;11.876;2023-04-25T06:51:15;1.75;;;1.10;;
23588;SDS011;11972;48.078;11.876;2023-04-25T06:55:15;1.55;;;0.90;;
23588;SDS011;11972;48.078;11.876;2023-04-25T06:59:15;1.45;;;1.00;;
23588;SDS011;11972;48.078;11.876;2023-04-25T07:03:16;1.10;;;1.00;;
23588;SDS011;11972;48.078;11.876;2023-04-25T07:07:16;1.92;;;1.00;;
23588;SDS011;11972;48.078;11.876;2023-04-25T07:11:17;1.15;;;0.90;;
23588;SDS011;11972;48.078;11.876;2023-04-25T07:15:17;1.05;;;0.80;;
23588;SDS011;11972;48.078;11.876;2023-04-25T07:19:17;2.83;;;1.05;;
23588;SDS011;11972;48.078;11.876;2023-04-25T07:23:18;2.30;;;1.20;;
23588;SDS011;11972;48.078;11.876;2023-04-25T07:27:18;3.10;;;1.30;;
23588;SDS011;11972;48.078;11.876;2023-04-25T07:31:19;2.10;;;1.10;;
23588;SDS011;11972;48.078;11.876;2023-04-25T07:35:19;3.80;;;1.02;;
23588;SDS011;11972;48.078;11.876;2023-04-25T07:39:20;2.55;;;1.02;;
23588;SDS011;11972;48.078;11.876;2023-04-25T07:43:20;2.20;;;1.20;;
23588;SDS011;11972;48.078;11.876;2023-04-25T07:47:20;1.63;;;1.10;;
23588;SDS011;11972;48.078;11.876;2023-04-25T07:51:21;1.83;;;0.90;;
23588;SDS011;11972;48.078;11.876;2023-04-25T07:55:22;1.60;;;0.98;;
23588;SDS011;11972;48.078;11.876;2023-04-25T07:59:22;1.73;;;0.88;;
23588;SDS011;11972;48.078;11.876;2023-04-25T08:03:23;1.40;;;0.82;;
23588;SDS011;11972;48.078;11.876;2023-04-25T08:07:23;2.53;;;1.35;;
23588;SDS011;11972;48.078;11.876;2023-04-25T08:11:25;1.52;;;1.00;;
23588;SDS011;11972;48.078;11.876;2023-04-25T08:15:26;1.45;;;0.90;;
23588;SDS011;11972;48.078;11.876;2023-04-25T08:19:26;1.35;;;1.00;;
23588;SDS011;11972;48.078;11.876;2023-04-25T08:23:27;2.15;;;1.08;;
23588;SDS011;11972;48.078;11.876;2023-04-25T08:27:27;1.58;;;1.17;;
23588;SDS011;11972;48.078;11.876;2023-04-25T08:31:28;2.47;;;0.90;;
23588;SDS011;11972;48.078;11.876;2023-04-25T08:35:28;1.15;;;1.02;;
23588;SDS011;11972;48.078;11.876;2023-04-25T08:39:28;1.77;;;1.13;;
23588;SDS011;11972;48.078;11.876;2023-04-25T08:43:29;2.40;;;1.10;;
23588;SDS011;11972;48.078;11.876;2023-04-25T08:47:30;1.60;;;0.95;;
23588;SDS011;11972;48.078;11.876;2023-04-25T08:51:33;1.92;;;1.10;;
23588;SDS011;11972;48.078;11.876;2023-04-25T08:55:37;0.77;;;0.70;;
23588;SDS011;11972;48.078;11.876;2023-04-25T08:59:41;1.75;;;0.80;;
23588;SDS011;11972;48.078;11.876;2023-04-25T09:03:45;1.40;;;0.90;;
23588;SDS011;11972;48.078;11.876;2023-04-25T09:07:47;0.95;;;0.70;;
23588;SDS011;11972;48.078;11.876;2023-04-25T09:11:47;1.77;;;1.00;;
23588;SDS011;11972;48.078;11.876;2023-04-25T09:15:48;1.55;;;1.05;;
23588;SDS011;11972;48.078;11.876;2023-04-25T09:19:51;2.45;;;1.48;;
23588;SDS011;11972;48.078;11.876;2023-04-25T09:23:51;1.87;;;1.10;;
23588;SDS011;11972;48.078;11.876;2023-04-25T09:27:53;1.15;;;1.00;;
23588;SDS011;11972;48.078;11.876;2023-04-25T09:31:57;1.73;;;1.17;;
23588;SDS011;11972;48.078;11.876;2023-04-25T09:36:11;3.40;;;1.20;;
23588;SDS011;11972;48.078;11.876;2023-04-25T09:40:11;1.10;;;0.90;;
23588;SDS011;11972;48.078;11.876;2023-04-25T09:44:12;1.50;;;0.90;;
23588;SDS011;11972;48.078;11.876;2023-04-25T09:48:19;1.52;;;0.85;;
23588;SDS011;11972;48.078;11.876;2023-04-25T09:52:22;2.07;;;1.20;;
23588;SDS011;11972;48.078;11.876;2023-04-25T09:56:23;1.27;;;0.70;;
23588;SDS011;11972;48.078;11.876;2023-04-25T10:00:26;2.22;;;0.80;;
23588;SDS011;11972;48.078;11.876;2023-04-25T10:04:27;1.20;;;0.70;;
23588;SDS011;11972;48.078;11.876;2023-04-25T10:08:33;1.77;;;0.80;;
23588;SDS011;11972;48.078;11.876;2023-04-25T10:12:36;1.90;;;0.80;;
23588;SDS011;11972;48.078;11.876;2023-04-25T10:16:37;2.38;;;0.95;;
23588;SDS011;11972;48.078;11.876;2023-04-25T10:20:38;1.02;;;0.82;;
23588;SDS011;11972;48.078;11.876;2023-04-25T10:24:39;2.33;;;0.80;;
23588;SDS011;11972;48.078;11.876;2023-04-25T10:28:58;2.97;;;0.90;;
23588;SDS011;11972;48.078;11.876;2023-04-25T10:33:08;1.35;;;0.80;;
23588;SDS011;11972;48.078;11.876;2023-04-25T10:37:17;1.77;;;1.02;;
23588;SDS011;11972;48.078;11.876;2023-04-25T10:41:19;1.02;;;0.82;;
23588;SDS011;11972;48.078;11.876;2023-04-25T10:45:21;2.13;;;1.00;;
23588;SDS011;11972;48.078;11.876;2023-04-25T10:49:29;1.45;;;0.80;;
23588;SDS011;11972;48.078;11.876;2023-04-25T10:53:35;1.85;;;0.80;;
23588;SDS011;11972;48.078;11.876;2023-04-25T11:01:40;1.48;;;0.82;;
23588;SDS011;11972;48.078;11.876;2023-04-25T11:05:41;1.52;;;0.85;;
23588;SDS011;11972;48.078;11.876;2023-04-25T11:09:45;1.77;;;0.70;;
23588;SDS011;11972;48.078;11.876;2023-04-25T11:13:49;1.17;;;0.70;;
23588;SDS011;11972;48.078;11.876;2023-04-25T11:17:53;1.05;;;0.60;;
23588;SDS011;11972;48.078;11.876;2023-04-25T11:21:54;2.92;;;0.88;;
23588;SDS011;11972;48.078;11.876;2023-04-25T11:25:56;3.65;;;1.20;;
23588;SDS011;11972;48.078;11.876;2023-04-25T11:29:56;1.83;;;1.10;;
23588;SDS011;11972;48.078;11.876;2023-04-25T11:33:56;1.40;;;0.98;;
23588;SDS011;11972;48.078;11.876;2023-04-25T11:37:57;1.75;;;1.00;;
23588;SDS011;11972;48.078;11.876;2023-04-25T11:41:58;1.35;;;1.20;;
23588;SDS011;11972;48.078;11.876;2023-04-25T11:45:58;2.35;;;1.45;;
23588;SDS011;11972;48.078;11.876;2023-04-25T11:49:59;2.35;;;1.63;;
23588;SDS011;11972;48.078;11.876;2023-04-25T11:54:00;1.20;;;1.10;;
23588;SDS011;11972;48.078;11.876;2023-04-25T11:58:01;2.50;;;1.50;;
23588;SDS011;11972;48.078;11.876;2023-04-25T12:02:02;1.25;;;1.10;;
23588;SDS011;11972;48.078;11.876;2023-04-25T12:06:02;0.85;;;0.85;;
23588;SDS011;11972;48.078;11.876;2023-04-25T12:10:04;1.02;;;0.90;;
23588;SDS011;11972;48.078;11.876;2023-04-25T12:14:12;1.25;;;1.00;;
23588;SDS011;11972;48.078;11.876;2023-04-25T12:18:25;1.05;;;0.90;;
23588;SDS011;11972;48.078;11.876;2023-04-25T12:22:28;1.25;;;0.90;;
23588;SDS011;11972;48.078;11.876;2023-04-25T12:26:45;1.23;;;0.70;;
23588;SDS011;11972;48.078;11.876;2023-04-25T12:35:03;0.95;;;0.70;;
23588;SDS011;11972;48.078;11.876;2023-04-25T12:39:05;0.93;;;0.80;;
23588;SDS011;11972;48.078;11.876;2023-04-25T12:43:05;0.93;;;0.65;;
23588;SDS011;11972;48.078;11.876;2023-04-25T12:47:06;1.27;;;0.80;;
23588;SDS011;11972;48.078;11.876;2023-04-25T12:51:06;1.00;;;0.90;;
23588;SDS011;11972;48.078;11.876;2023-04-25T12:55:07;1.48;;;1.20;;
23588;SDS011;11972;48.078;11.876;2023-04-25T12:59:07;1.60;;;1.23;;
23588;SDS011;11972;48.078;11.876;2023-04-25T13:03:08;1.92;;;1.50;;
23588;SDS011;11972;48.078;11.876;2023-04-25T13:07:09;1.77;;;1.00;;
23588;SDS011;11972;48.078;11.876;2023-04-25T13:11:09;2.13;;;1.15;;
23588;SDS011;11972;48.078;11.876;2023-04-25T13:15:09;0.77;;;0.75;;
23588;SDS011;11972;48.078;11.876;2023-04-25T13:19:11;3.08;;;0.63;;
23588;SDS011;11972;48.078;11.876;2023-04-25T13:23:12;1.00;;;0.70;;
23588;SDS011;11972;48.078;11.876;2023-04-25T13:27:13;0.75;;;0.57;;
23588;SDS011;11972;48.078;11.876;2023-04-25T13:31:13;1.35;;;0.82;;
23588;SDS011;11972;48.078;11.876;2023-04-25T13:35:13;1.07;;;0.67;;
23588;SDS011;11972;48.078;11.876;2023-04-25T13:39:15;1.15;;;0.80;;
23588;SDS011;11972;48.078;11.876;2023-04-25T13:43:24;1.98;;;0.90;;
23588;SDS011;11972;48.078;11.876;2023-04-25T13:47:25;1.27;;;0.90;;
23588;SDS011;11972;48.078;11.876;2023-04-25T13:51:26;1.10;;;0.85;;
23588;SDS011;11972;48.078;11.876;2023-04-25T13:55:27;1.60;;;0.85;;
23588;SDS011;11972;48.078;11.876;2023-04-25T13:59:27;1.20;;;0.90;;
23588;SDS011;11972;48.078;11.876;2023-04-25T14:03:27;1.00;;;1.00;;
23588;SDS011;11972;48.078;11.876;2023-04-25T14:07:28;1.30;;;1.20;;
23588;SDS011;11972;48.078;11.876;2023-04-25T14:11:28;1.42;;;1.33;;
23588;SDS011;11972;48.078;11.876;2023-04-25T14:15:30;1.85;;;1.30;;
23588;SDS011;11972;48.078;11.876;2023-04-25T14:19:31;1.35;;;1.15;;
23588;SDS011;11972;48.078;11.876;2023-04-25T14:23:32;1.40;;;1.30;;
23588;SDS011;11972;48.078;11.876;2023-04-25T14:27:32;1.10;;;1.00;;
23588;SDS011;11972;48.078;11.876;2023-04-25T14:31:33;1.27;;;0.90;;
23588;SDS011;11972;48.078;11.876;2023-04-25T14:35:34;1.02;;;0.70;;
23588;SDS011;11972;48.078;11.876;2023-04-25T14:39:35;1.65;;;1.00;;
23588;SDS011;11972;48.078;11.876;2023-04-25T14:43:36;2.33;;;1.00;;
23588;SDS011;11972;48.078;11.876;2023-04-25T14:47:37;1.35;;;1.00;;
23588;SDS011;11972;48.078;11.876;2023-04-25T14:51:37;1.23;;;0.88;;
23588;SDS011;11972;48.078;11.876;2023-04-25T14:55:38;1.00;;;0.88;;
23588;SDS011;11972;48.078;11.876;2023-04-25T14:59:38;1.02;;;0.85;;
23588;SDS011;11972;48.078;11.876;2023-04-25T15:03:39;1.63;;;0.70;;
23588;SDS011;11972;48.078;11.876;2023-04-25T15:07:40;2.17;;;1.30;;
23588;SDS011;11972;48.078;11.876;2023-04-25T15:11:41;1.10;;;1.00;;
23588;SDS011;11972;48.078;11.876;2023-04-25T15:15:42;1.42;;;1.25;;
23588;SDS011;11972;48.078;11.876;2023-04-25T15:19:42;1.23;;;1.13;;
23588;SDS011;11972;48.078;11.876;2023-04-25T15:23:42;1.08;;;0.98;;
23588;SDS011;11972;48.078;11.876;2023-04-25T15:27:43;0.90;;;0.90;;
23588;SDS011;11972;48.078;11.876;2023-04-25T15:31:44;1.27;;;0.60;;
23588;SDS011;11972;48.078;11.876;2023-04-25T15:35:44;1.20;;;1.10;;
23588;SDS011;11972;48.078;11.876;2023-04-25T15:39:44;0.88;;;0.80;;
23588;SDS011;11972;48.078;11.876;2023-04-25T15:43:46;2.53;;;1.10;;
23588;SDS011;11972;48.078;11.876;2023-04-25T15:47:48;1.20;;;1.10;;
23588;SDS011;11972;48.078;11.876;2023-04-25T15:51:50;1.40;;;1.30;;
23588;SDS011;11972;48.078;11.876;2023-04-25T15:55:50;1.23;;;1.13;;
23588;SDS011;11972;48.078;11.876;2023-04-25T15:59:50;1.20;;;1.10;;
23588;SDS011;11972;48.078;11.876;2023-04-25T16:03:51;1.40;;;1.30;;
23588;SDS011;11972;48.078;11.876;2023-04-25T16:07:51;1.38;;;1.27;;
23588;SDS011;11972;48.078;11.876;2023-04-25T16:11:53;1.50;;;1.40;;
23588;SDS011;11972;48.078;11.876;2023-04-25T16:15:53;1.30;;;1.20;;
23588;SDS011;11972;48.078;11.876;2023-04-25T16:19:54;1.80;;;0.98;;
23588;SDS011;11972;48.078;11.876;2023-04-25T16:23:58;1.02;;;0.80;;
23588;SDS011;11972;48.078;11.876;2023-04-25T16:27:58;1.55;;;0.98;;
23588;SDS011;11972;48.078;11.876;2023-04-25T16:31:58;0.73;;;0.73;;
23588;SDS011;11972;48.078;11.876;2023-04-25T16:35:59;1.10;;;1.00;;
23588;SDS011;11972;48.078;11.876;2023-04-25T16:39:59;3.10;;;1.63;;
23588;SDS011;11972;48.078;11.876;2023-04-25T16:43:59;1.52;;;1.42;;
23588;SDS011;11972;48.078;11.876;2023-04-25T16:48:00;4.95;;;1.70;;
23588;SDS011;11972;48.078;11.876;2023-04-25T16:52:00;1.58;;;1.30;;
23588;SDS011;11972;48.078;11.876;2023-04-25T16:56:01;0.80;;;0.80;;
23588;SDS011;11972;48.078;11.876;2023-04-25T17:00:01;0.77;;;0.77;;
23588;SDS011;11972;48.078;11.876;2023-04-25T17:04:02;1.30;;;1.20;;
23588;SDS011;11972;48.078;11.876;2023-04-25T17:08:03;1.20;;;1.10;;
23588;SDS011;11972;48.078;11.876;2023-04-25T17:12:03;1.50;;;1.40;;
23588;SDS011;11972;48.078;11.876;2023-04-25T17:16:04;2.35;;;1.60;;
23588;SDS011;11972;48.078;11.876;2023-04-25T17:20:05;2.25;;;2.05;;
23588;SDS011;11972;48.078;11.876;2023-04-25T17:24:06;2.97;;;2.42;;
23588;SDS011;11972;48.078;11.876;2023-04-25T17:28:11;3.58;;;2.47;;
23588;SDS011;11972;48.078;11.876;2023-04-25T17:32:12;2.28;;;2.17;;
23588;SDS011;11972;48.078;11.876;2023-04-25T17:36:12;2.28;;;2.08;;
23588;SDS011;11972;48.078;11.876;2023-04-25T17:40:12;3.28;;;2.30;;
23588;SDS011;11972;48.078;11.876;2023-04-25T17:44:13;2.92;;;2.20;;
23588;SDS011;11972;48.078;11.876;2023-04-25T17:48:13;2.88;;;2.50;;
23588;SDS011;11972;48.078;11.876;2023-04-25T17:52:13;2.50;;;2.30;;
23588;SDS011;11972;48.078;11.876;2023-04-25T17:56:14;3.15;;;2.55;;
23588;SDS011;11972;48.078;11.876;2023-04-25T18:00:15;2.88;;;2.03;;
23588;SDS011;11972;48.078;11.876;2023-04-25T18:04:17;2.53;;;2.33;;
23588;SDS011;11972;48.078;11.876;2023-04-25T18:08:18;2.95;;;2.38;;
23588;SDS011;11972;48.078;11.876;2023-04-25T18:12:18;2.60;;;2.40;;
23588;SDS011;11972;48.078;11.876;2023-04-25T18:16:19;2.30;;;2.03;;
23588;SDS011;11972;48.078;11.876;2023-04-25T18:20:20;2.20;;;2.08;;
23588;SDS011;11972;48.078;11.876;2023-04-25T18:24:21;3.28;;;2.53;;
23588;SDS011;11972;48.078;11.876;2023-04-25T18:28:23;3.05;;;2.63;;
23588;SDS011;11972;48.078;11.876;2023-04-25T18:32:23;2.63;;;2.42;;
23588;SDS011;11972;48.078;11.876;2023-04-25T18:36:24;4.20;;;2.63;;
23588;SDS011;11972;48.078;11.876;2023-04-25T18:40:26;3.55;;;2.50;;
23588;SDS011;11972;48.078;11.876;2023-04-25T18:44:26;3.38;;;2.85;;
23588;SDS011;11972;48.078;11.876;2023-04-25T18:48:27;2.97;;;2.78;;
23588;SDS011;11972;48.078;11.876;2023-04-25T18:52:27;4.75;;;3.58;;
23588;SDS011;11972;48.078;11.876;2023-04-25T18:56:28;5.40;;;4.90;;
23588;SDS011;11972;48.078;11.876;2023-04-25T19:00:28;5.78;;;4.20;;
23588;SDS011;11972;48.078;11.876;2023-04-25T19:04:29;4.53;;;3.20;;
23588;SDS011;11972;48.078;11.876;2023-04-25T19:08:29;2.75;;;2.55;;
23588;SDS011;11972;48.078;11.876;2023-04-25T19:12:30;3.17;;;2.78;;
23588;SDS011;11972;48.078;11.876;2023-04-25T19:16:32;2.85;;;2.50;;
23588;SDS011;11972;48.078;11.876;2023-04-25T19:20:37;3.58;;;1.70;;
23588;SDS011;11972;48.078;11.876;2023-04-25T19:24:38;3.05;;;1.30;;
23588;SDS011;11972;48.078;11.876;2023-04-25T19:28:41;4.13;;;1.40;;
23588;SDS011;11972;48.078;11.876;2023-04-25T19:32:43;1.98;;;1.30;;
23588;SDS011;11972;48.078;11.876;2023-04-25T19:36:44;2.13;;;1.30;;
23588;SDS011;11972;48.078;11.876;2023-04-25T19:40:45;3.30;;;1.83;;
23588;SDS011;11972;48.078;11.876;2023-04-25T19:44:45;1.60;;;1.50;;
23588;SDS011;11972;48.078;11.876;2023-04-25T19:48:45;2.03;;;1.90;;
23588;SDS011;11972;48.078;11.876;2023-04-25T19:52:46;2.47;;;2.28;;
23588;SDS011;11972;48.078;11.876;2023-04-25T19:56:46;2.35;;;1.83;;
23588;SDS011;11972;48.078;11.876;2023-04-25T20:00:47;2.88;;;2.60;;
23588;SDS011;11972;48.078;11.876;2023-04-25T20:04:48;2.10;;;1.80;;
23588;SDS011;11972;48.078;11.876;2023-04-25T20:08:51;2.10;;;2.00;;
23588;SDS011;11972;48.078;11.876;2023-04-25T20:12:52;2.00;;;1.80;;
23588;SDS011;11972;48.078;11.876;2023-04-25T20:16:53;2.83;;;2.63;;
23588;SDS011;11972;48.078;11.876;2023-04-25T20:20:53;2.72;;;2.53;;
23588;SDS011;11972;48.078;11.876;2023-04-25T20:24:54;2.90;;;2.70;;
23588;SDS011;11972;48.078;11.876;2023-04-25T20:28:55;3.30;;;2.13;;
23588;SDS011;11972;48.078;11.876;2023-04-25T20:32:59;2.72;;;1.90;;
23588;SDS011;11972;48.078;11.876;2023-04-25T20:36:59;2.40;;;2.20;;
23588;SDS011;11972;48.078;11.876;2023-04-25T20:41:01;2.50;;;2.28;;
23588;SDS011;11972;48.078;11.876;2023-04-25T20:45:02;3.33;;;2.40;;
23588;SDS011;11972;48.078;11.876;2023-04-25T20:49:06;2.20;;;2.00;;
23588;SDS011;11972;48.078;11.876;2023-04-25T20:53:07;2.80;;;2.45;;
23588;SDS011;11972;48.078;11.876;2023-04-25T20:57:07;2.15;;;2.05;;
23588;SDS011;11972;48.078;11.876;2023-04-25T21:01:07;2.33;;;2.15;;
23588;SDS011;11972;48.078;11.876;2023-04-25T21:05:08;2.92;;;2.67;;
23588;SDS011;11972;48.078;11.876;2023-04-25T21:09:09;2.70;;;2.40;;
23588;SDS011;11972;48.078;11.876;2023-04-25T21:13:10;3.05;;;2.70;;
23588;SDS011;11972;48.078;11.876;2023-04-25T21:17:11;2.80;;;2.60;;
23588;SDS011;11972;48.078;11.876;2023-04-25T21:21:11;3.15;;;2.28;;
23588;SDS011;11972;48.078;11.876;2023-04-25T21:25:12;2.80;;;2.50;;
23588;SDS011;11972;48.078;11.876;2023-04-25T21:29:14;3.10;;;2.80;;
23588;SDS011;11972;48.078;11.876;2023-04-25T21:33:14;2.92;;;2.63;;
23588;SDS011;11972;48.078;11.876;2023-04-25T21:37:15;3.08;;;2.50;;
23588;SDS011;11972;48.078;11.876;2023-04-25T21:41:15;3.78;;;2.38;;
23588;SDS011;11972;48.078;11.876;2023-04-25T21:45:16;2.42;;;2.22;;
23588;SDS011;11972;48.078;11.876;2023-04-25T21:49:17;4.22;;;2.70;;
23588;SDS011;11972;48.078;11.876;2023-04-25T21:53:17;2.35;;;2.15;;
23588;SDS011;11972;48.078;11.876;2023-04-25T21:57:17;1.83;;;1.73;;
23588;SDS011;11972;48.078;11.876;2023-04-25T22:01:18;3.70;;;2.20;;
23588;SDS011;11972;48.078;11.876;2023-04-25T22:05:18;4.18;;;2.13;;
23588;SDS011;11972;48.078;11.876;2023-04-25T22:09:20;2.80;;;2.25;;
23588;SDS011;11972;48.078;11.876;2023-04-25T22:13:20;2.50;;;2.30;;
23588;SDS011;11972;48.078;11.876;2023-04-25T22:17:21;2.40;;;2.20;;
23588;SDS011;11972;48.078;11.876;2023-04-25T22:21:25;2.60;;;2.22;;
23588;SDS011;11972;48.078;11.876;2023-04-25T22:25:26;2.40;;;2.20;;
23588;SDS011;11972;48.078;11.876;2023-04-25T22:29:27;2.97;;;2.40;;
23588;SDS011;11972;48.078;11.876;2023-04-25T22:33:27;2.65;;;2.33;;
23588;SDS011;11972;48.078;11.876;2023-04-25T22:37:28;2.38;;;2.17;;
23588;SDS011;11972;48.078;11.876;2023-04-25T22:41:28;2.55;;;2.15;;
23588;SDS011;11972;48.078;11.876;2023-04-25T22:45:28;3.05;;;2.47;;
23588;SDS011;11972;48.078;11.876;2023-04-25T22:49:29;2.30;;;2.10;;
23588;SDS011;11972;48.078;11.876;2023-04-25T22:53:29;2.65;;;2.45;;
23588;SDS011;11972;48.078;11.876;2023-04-25T22:57:35;3.20;;;2.40;;
23588;SDS011;11972;48.078;11.876;2023-04-25T23:01:37;3.40;;;2.60;;
23588;SDS011;11972;48.078;11.876;2023-04-25T23:05:37;3.70;;;2.35;;
23588;SDS011;11972;48.078;11.876;2023-04-25T23:09:37;2.50;;;2.30;;
23588;SDS011;11972;48.078;11.876;2023-04-25T23:13:40;3.20;;;2.90;;
23588;SDS011;11972;48.078;11.876;2023-04-25T23:17:40;4.20;;;2.72;;
23588;SDS011;11972;48.078;11.876;2023-04-25T23:21:41;2.70;;;2.50;;
23588;SDS011;11972;48.078;11.876;2023-04-25T23:25:41;2.40;;;2.20;;
23588;SDS011;11972;48.078;11.876;2023-04-25T23:29:42;2.85;;;2.50;;
23588;SDS011;11972;48.078;11.876;2023-04-25T23:33:42;2.72;;;2.45;;
23588;SDS011;11972;48.078;11.876;2023-04-25T23:37:43;2.78;;;2.40;;
23588;SDS011;11972;48.078;11.876;2023-04-25T23:41:43;2.53;;;2.33;;
23588;SDS011;11972;48.078;11.876;2023-04-25T23:45:43;2.92;;;2.53;;
23588;SDS011;11972;48.078;11.876;2023-04-25T23:49:45;3.17;;;2.88;;
23588;SDS011;11972;48.078;11.876;2023-04-25T23:53:45;3.28;;;2.97;;
23588;SDS011;11972;48.078;11.876;2023-04-25T23:57:46;3.83;;;3.40;;
